Time,TemperatureF,DewpointF,PressureIn,WindDirection,WindDirectionDegrees,WindSpeedMPH,WindSpeedGustMPH,Humidity,HourlyPrecipIn,Conditions,Clouds,dailyrainin,SoftwareType,DateUTC
2013-05-29 00:02:00,58.8,56.0,30.06,WSW,241,13.0,-999.0,90,-99.99,,,0.00,weatherlink.com 1.10,2013-05-29 04:02:00,
2013-05-29 00:17:00,58.6,56.0,30.06,WSW,241,7.0,-999.0,90,-99.99,,,0.00,weatherlink.com 1.10,2013-05-29 04:17:00,
2013-05-29 00:32:00,58.2,56.0,30.07,SSW,207,4.0,-999.0,91,-99.99,,,0.00,weatherlink.com 1.10,2013-05-29 04:32:00,
2013-05-29 00:47:00,57.9,55.0,30.07,SW,222,8.0,-999.0,91,-99.99,,,0.00,weatherlink.com 1.10,2013-05-29 04:47:00,
2013-05-29 01:02:00,57.7,55.0,30.07,SW,229,9.0,-999.0,91,-99.99,,,0.00,weatherlink.com 1.10,2013-05-29 05:02:00,
2013-05-29 01:17:00,57.7,55.0,30.07,SSW,193,16.0,-999.0,91,-99.99,,,0.00,weatherlink.com 1.10,2013-05-29 05:17:00,
2013-05-29 01:32:00,57.8,55.0,30.07,WSW,247,7.0,-999.0,91,-99.99,,,0.00,weatherlink.com 1.10,2013-05-29 05:32:00,
2013-05-29 01:47:00,57.8,55.0,30.07,WSW,244,8.0,-999.0,91,-99.99,,,0.00,weatherlink.com 1.10,2013-05-29 05:47:00,
2013-05-29 02:02:00,57.4,55.0,30.07,SW,217,7.0,-999.0,91,-99.99,,,0.00,weatherlink.com 1.10,2013-05-29 06:02:00,
2013-05-29 02:17:00,57.2,55.0,30.07,SSW,208,8.0,-999.0,91,-99.99,,,0.00,weatherlink.com 1.10,2013-05-29 06:17:00,
2013-05-29 02:32:00,57.2,55.0,30.07,SW,229,6.0,-999.0,91,-99.99,,,0.00,weatherlink.com 1.10,2013-05-29 06:32:00,
2013-05-29 02:47:00,57.8,55.0,30.07,WSW,242,9.0,-999.0,91,-99.99,,,0.00,weatherlink.com 1.10,2013-05-29 06:47:00,
2013-05-29 03:02:00,57.8,55.0,30.07,SW,215,9.0,-999.0,91,-99.99,,,0.00,weatherlink.com 1.10,2013-05-29 07:02:00,
2013-05-29 03:17:00,58.2,55.0,30.07,WSW,237,11.0,-999.0,90,-99.99,,,0.00,weatherlink.com 1.10,2013-05-29 07:17:00,
2013-05-29 03:47:00,58.6,56.0,30.07,SW,227,18.0,-999.0,90,-99.99,,,0.00,weatherlink.com 1.10,2013-05-29 07:47:00,
2013-05-29 04:02:00,58.6,56.0,30.07,WSW,240,11.0,-999.0,90,-99.99,,,0.00,weatherlink.com 1.10,2013-05-29 08:02:00,
2013-05-29 04:17:00,58.4,56.0,30.07,WSW,250,13.0,-999.0,90,-99.99,,,0.00,weatherlink.com 1.10,2013-05-29 08:17:00,
2013-05-29 04:32:00,57.9,55.0,30.07,WSW,238,12.0,-999.0,91,-99.99,,,0.00,weatherlink.com 1.10,2013-05-29 08:32:00,
2013-05-29 04:47:00,57.7,55.0,30.07,SW,234,9.0,-999.0,91,-99.99,,,0.00,weatherlink.com 1.10,2013-05-29 08:47:00,
2013-05-29 05:02:00,57.4,55.0,30.06,SW,236,13.0,-999.0,91,-99.99,,,0.00,weatherlink.com 1.10,2013-05-29 09:02:00,
2013-05-29 05:17:00,57.7,55.0,30.06,WSW,242,12.0,-999.0,90,-99.99,,,0.00,weatherlink.com 1.10,2013-05-29 09:17:00,
2013-05-29 05:32:00,57.6,55.0,30.07,WSW,246,10.0,-999.0,90,-99.99,,,0.00,weatherlink.com 1.10,2013-05-29 09:32:00,
2013-05-29 05:47:00,57.6,54.0,30.06,SW,221,12.0,-999.0,89,-99.99,,,0.00,weatherlink.com 1.10,2013-05-29 09:47:00,
2013-05-29 06:02:00,57.9,54.0,30.06,SW,227,9.0,-999.0,88,-99.99,,,0.00,weatherlink.com 1.10,2013-05-29 10:02:00,
2013-05-29 06:17:00,57.6,54.0,30.06,SW,223,14.0,-999.0,89,-99.99,,,0.00,weatherlink.com 1.10,2013-05-29 10:17:00,
2013-05-29 06:32:00,57.7,54.0,30.07,SW,224,19.0,-999.0,88,-99.99,,,0.00,weatherlink.com 1.10,2013-05-29 10:32:00,
2013-05-29 06:47:00,58.0,54.0,30.06,WSW,245,15.0,-999.0,87,-99.99,,,0.00,weatherlink.com 1.10,2013-05-29 10:47:00,
2013-05-29 07:02:00,58.0,54.0,30.07,SW,228,9.0,-999.0,87,-99.99,,,0.00,weatherlink.com 1.10,2013-05-29 11:02:00,
2013-05-29 07:17:00,58.1,54.0,30.07,WSW,256,12.0,-999.0,87,-99.99,,,0.00,weatherlink.com 1.10,2013-05-29 11:17:00,
2013-05-29 07:32:00,58.5,55.0,30.08,WSW,246,10.0,-999.0,87,-99.99,,,0.00,weatherlink.com 1.10,2013-05-29 11:32:00,
2013-05-29 07:47:00,58.6,55.0,30.08,SW,223,10.0,-999.0,87,-99.99,,,0.00,weatherlink.com 1.10,2013-05-29 11:47:00,
2013-05-29 08:02:00,58.9,55.0,30.08,WSW,256,12.0,-999.0,86,-99.99,,,0.00,weatherlink.com 1.10,2013-05-29 12:02:00,
2013-05-29 08:17:00,59.7,55.0,30.09,SW,227,12.0,-999.0,85,-99.99,,,0.00,weatherlink.com 1.10,2013-05-29 12:17:00,
2013-05-29 08:32:00,60.9,55.0,30.09,WSW,238,16.0,-999.0,81,-99.99,,,0.00,weatherlink.com 1.10,2013-05-29 12:32:00,
2013-05-29 08:47:00,61.4,55.0,30.09,SW,232,13.0,-999.0,79,-99.99,,,0.00,weatherlink.com 1.10,2013-05-29 12:47:00,
2013-05-29 09:02:00,62.1,55.0,30.10,SSW,213,6.0,-999.0,77,-99.99,,,0.00,weatherlink.com 1.10,2013-05-29 13:02:00,
2013-05-29 09:18:00,62.7,54.0,30.11,West,262,16.0,-999.0,74,-99.99,,,0.00,weatherlink.com 1.10,2013-05-29 13:18:00,
2013-05-29 09:33:00,63.7,54.0,30.12,WSW,256,12.0,-999.0,71,-99.99,,,0.00,weatherlink.com 1.10,2013-05-29 13:33:00,
2013-05-29 09:48:00,63.8,55.0,30.12,SW,227,13.0,-999.0,73,-99.99,,,0.00,weatherlink.com 1.10,2013-05-29 13:48:00,
2013-05-29 10:03:00,63.9,54.0,30.12,SW,215,14.0,-999.0,71,-99.99,,,0.00,weatherlink.com 1.10,2013-05-29 14:03:00,
2013-05-29 10:18:00,64.7,54.0,30.11,SW,229,19.0,-999.0,69,-99.99,,,0.00,weatherlink.com 1.10,2013-05-29 14:18:00,
2013-05-29 10:33:00,65.5,55.0,30.11,WSW,242,14.0,-999.0,68,-99.99,,,0.00,weatherlink.com 1.10,2013-05-29 14:33:00,
2013-05-29 10:48:00,65.7,55.0,30.12,WSW,245,16.0,-999.0,68,-99.99,,,0.00,weatherlink.com 1.10,2013-05-29 14:48:00,
2013-05-29 11:03:00,66.2,55.0,30.12,SW,229,13.0,-999.0,67,-99.99,,,0.00,weatherlink.com 1.10,2013-05-29 15:03:00,
2013-05-29 11:18:00,67.0,56.0,30.12,WSW,250,6.0,-999.0,68,-99.99,,,0.00,weatherlink.com 1.10,2013-05-29 15:18:00,
2013-05-29 11:33:00,67.0,55.0,30.12,WNW,287,6.0,-999.0,66,-99.99,,,0.00,weatherlink.com 1.10,2013-05-29 15:33:00,
2013-05-29 11:48:00,68.1,56.0,30.12,SW,220,7.0,-999.0,65,-99.99,,,0.00,weatherlink.com 1.10,2013-05-29 15:48:00,
2013-05-29 12:03:00,68.5,56.0,30.12,SW,234,7.0,-999.0,64,-99.99,,,0.00,weatherlink.com 1.10,2013-05-29 16:03:00,
2013-05-29 12:18:00,69.9,56.0,30.12,West,261,7.0,-999.0,61,-99.99,,,0.00,weatherlink.com 1.10,2013-05-29 16:18:00,
2013-05-29 12:33:00,69.4,55.0,30.13,West,263,12.0,-999.0,60,-99.99,,,0.00,weatherlink.com 1.10,2013-05-29 16:33:00,
2013-05-29 12:48:00,69.9,55.0,30.13,WSW,248,5.0,-999.0,59,-99.99,,,0.00,weatherlink.com 1.10,2013-05-29 16:48:00,
2013-05-29 13:03:00,70.4,54.0,30.12,SW,225,7.0,-999.0,57,-99.99,,,0.00,weatherlink.com 1.10,2013-05-29 17:03:00,
2013-05-29 13:18:00,71.3,55.0,30.12,WSW,254,11.0,-999.0,56,-99.99,,,0.00,weatherlink.com 1.10,2013-05-29 17:18:00,
2013-05-29 13:33:00,70.7,56.0,30.12,West,270,14.0,-999.0,59,-99.99,,,0.00,weatherlink.com 1.10,2013-05-29 17:33:00,
2013-05-29 13:48:00,73.0,55.0,30.11,WSW,257,10.0,-999.0,54,-99.99,,,0.00,weatherlink.com 1.10,2013-05-29 17:48:00,
2013-05-29 14:03:00,72.5,54.0,30.11,SSW,209,11.0,-999.0,53,-99.99,,,0.00,weatherlink.com 1.10,2013-05-29 18:03:00,
2013-05-29 14:18:00,73.1,53.0,30.11,West,277,7.0,-999.0,50,-99.99,,,0.00,weatherlink.com 1.10,2013-05-29 18:18:00,
2013-05-29 14:33:00,72.4,54.0,30.11,SW,231,11.0,-999.0,52,-99.99,,,0.00,weatherlink.com 1.10,2013-05-29 18:33:00,
2013-05-29 14:48:00,70.5,54.0,30.11,SW,228,13.0,-999.0,56,-99.99,,,0.00,weatherlink.com 1.10,2013-05-29 18:48:00,
2013-05-29 15:03:00,72.5,55.0,30.10,SW,231,6.0,-999.0,54,-99.99,,,0.00,weatherlink.com 1.10,2013-05-29 19:03:00,
2013-05-29 15:18:00,70.4,54.0,30.10,SW,214,7.0,-999.0,56,-99.99,,,0.00,weatherlink.com 1.10,2013-05-29 19:18:00,
2013-05-29 15:33:00,73.9,55.0,30.09,SW,234,12.0,-999.0,52,-99.99,,,0.00,weatherlink.com 1.10,2013-05-29 19:33:00,
2013-05-29 15:48:00,71.8,53.0,30.09,WSW,244,6.0,-999.0,52,-99.99,,,0.00,weatherlink.com 1.10,2013-05-29 19:48:00,
2013-05-29 16:03:00,74.3,51.0,30.08,SW,227,12.0,-999.0,44,-99.99,,,0.00,weatherlink.com 1.10,2013-05-29 20:03:00,
2013-05-29 16:18:00,74.9,53.0,30.08,SW,227,9.0,-999.0,46,-99.99,,,0.00,weatherlink.com 1.10,2013-05-29 20:18:00,
2013-05-29 16:33:00,73.3,52.0,30.08,SSW,207,10.0,-999.0,48,-99.99,,,0.00,weatherlink.com 1.10,2013-05-29 20:33:00,
2013-05-29 16:48:00,71.7,53.0,30.08,SW,220,9.0,-999.0,52,-99.99,,,0.00,weatherlink.com 1.10,2013-05-29 20:48:00,
2013-05-29 17:03:00,70.6,54.0,30.08,SW,223,4.0,-999.0,56,-99.99,,,0.00,weatherlink.com 1.10,2013-05-29 21:03:00,
2013-05-29 17:18:00,70.4,54.0,30.08,SW,229,5.0,-999.0,56,-99.99,,,0.00,weatherlink.com 1.10,2013-05-29 21:18:00,
2013-05-29 17:33:00,71.4,54.0,30.07,WSW,239,6.0,-999.0,55,-99.99,,,0.00,weatherlink.com 1.10,2013-05-29 21:33:00,
2013-05-29 17:48:00,70.1,54.0,30.08,WSW,247,7.0,-999.0,57,-99.99,,,0.00,weatherlink.com 1.10,2013-05-29 21:48:00,
2013-05-29 18:03:00,69.4,54.0,30.08,SW,216,7.0,-999.0,59,-99.99,,,0.00,weatherlink.com 1.10,2013-05-29 22:03:00,
2013-05-29 18:18:00,69.4,54.0,30.08,SW,221,7.0,-999.0,59,-99.99,,,0.00,weatherlink.com 1.10,2013-05-29 22:18:00,
2013-05-29 18:33:00,69.1,54.0,30.08,SW,215,6.0,-999.0,58,-99.99,,,0.00,weatherlink.com 1.10,2013-05-29 22:33:00,
2013-05-29 18:48:00,68.5,53.0,30.08,SW,225,4.0,-999.0,59,-99.99,,,0.00,weatherlink.com 1.10,2013-05-29 22:48:00,
2013-05-29 19:03:00,68.3,54.0,30.08,South,191,5.0,-999.0,60,-99.99,,,0.00,weatherlink.com 1.10,2013-05-29 23:03:00,
2013-05-29 19:18:00,69.7,54.0,30.08,SSW,209,5.0,-999.0,58,-99.99,,,0.00,weatherlink.com 1.10,2013-05-29 23:18:00,
2013-05-29 19:33:00,68.2,54.0,30.08,SSW,207,5.0,-999.0,61,-99.99,,,0.00,weatherlink.com 1.10,2013-05-29 23:33:00,
2013-05-29 19:48:00,67.5,54.0,30.08,SW,217,5.0,-999.0,62,-99.99,,,0.00,weatherlink.com 1.10,2013-05-29 23:48:00,
2013-05-29 20:03:00,67.0,54.0,30.08,SW,223,6.0,-999.0,63,-99.99,,,0.00,weatherlink.com 1.10,2013-05-30 00:03:00,
2013-05-29 20:18:00,66.2,54.0,30.08,SSW,210,6.0,-999.0,64,-99.99,,,0.00,weatherlink.com 1.10,2013-05-30 00:18:00,
2013-05-29 20:33:00,65.3,54.0,30.08,SW,221,2.0,-999.0,66,-99.99,,,0.00,weatherlink.com 1.10,2013-05-30 00:33:00,
2013-05-29 20:48:00,64.4,54.0,30.08,SW,221,4.0,-999.0,68,-99.99,,,0.00,weatherlink.com 1.10,2013-05-30 00:48:00,
2013-05-29 21:03:00,64.0,53.0,30.08,SW,219,5.0,-999.0,68,-99.99,,,0.00,weatherlink.com 1.10,2013-05-30 01:03:00,
2013-05-29 21:18:00,63.9,53.0,30.08,SW,223,7.0,-999.0,68,-99.99,,,0.00,weatherlink.com 1.10,2013-05-30 01:18:00,
2013-05-29 21:33:00,63.7,53.0,30.09,WSW,249,3.0,-999.0,69,-99.99,,,0.00,weatherlink.com 1.10,2013-05-30 01:33:00,
2013-05-29 21:48:00,63.2,53.0,30.09,SW,232,2.0,-999.0,70,-99.99,,,0.00,weatherlink.com 1.10,2013-05-30 01:48:00,
2013-05-29 22:03:00,62.8,53.0,30.09,WSW,252,1.0,-999.0,71,-99.99,,,0.00,weatherlink.com 1.10,2013-05-30 02:03:00,
2013-05-29 22:18:00,62.4,54.0,30.09,WSW,250,2.0,-999.0,74,-99.99,,,0.00,weatherlink.com 1.10,2013-05-30 02:18:00,
2013-05-29 22:33:00,62.2,54.0,30.09,SW,234,4.0,-999.0,74,-99.99,,,0.00,weatherlink.com 1.10,2013-05-30 02:33:00,
2013-05-29 22:48:00,62.7,54.0,30.09,SW,217,2.0,-999.0,73,-99.99,,,0.00,weatherlink.com 1.10,2013-05-30 02:48:00,
2013-05-29 23:03:00,62.9,54.0,30.09,SW,223,2.0,-999.0,72,-99.99,,,0.00,weatherlink.com 1.10,2013-05-30 03:03:00,
2013-05-29 23:18:00,62.8,54.0,30.09,SW,215,0.0,-999.0,72,-99.99,,,0.00,weatherlink.com 1.10,2013-05-30 03:18:00,
2013-05-29 23:33:00,62.6,53.0,30.09,South,178,1.0,-999.0,72,-99.99,,,0.00,weatherlink.com 1.10,2013-05-30 03:33:00,
2013-05-29 23:48:00,62.5,54.0,30.10,South,179,2.0,-999.0,74,-99.99,,,0.00,weatherlink.com 1.10,2013-05-30 03:48:00,